In Rescue
 
Open Full Screen Window  High Contrast Mode
Wind Gusting 19 knots
11
September 23, 2021 1:48 PM EDT
Present Weather: Light Rain
Weather Information
Wind Direction
  020 °
Wind Speed
  11 kt (13 mph)
Wind Gust
  19 kt (22 mph)
Altimeter
29.86 in
Visibility
10 SM
Temperature
09° C
48° F
Dewpoint
08° C
46° F
Humidity
94%
Sky Condition
Overcast @ 2,000 ft
Broken @ 1,300 ft
MVFR

METAR KCVX 231748Z AUTO 02011G19KT 10SM -RA BKN013 OVC020 09/08 A2986 RMK AO2 T00940076

FAA Disclaimer: The data displayed is for advisory purposes only and is not to be used for flight planning or operations.